createdAt,value
2023-01-30T00:00:12.032Z,44.33
2023-01-30T00:02:40.667Z,40.87
2023-01-30T00:05:11.060Z,42.27
2023-01-30T00:07:39.717Z,45.13
2023-01-30T00:10:09.053Z,40.30
2023-01-30T00:12:37.582Z,39.80
2023-01-30T00:15:07.101Z,35.27
2023-01-30T00:17:35.712Z,37.73
2023-01-30T00:20:04.362Z,37.87
2023-01-30T00:22:34.302Z,46.07
2023-01-30T00:25:02.880Z,43.33
2023-01-30T00:27:31.873Z,51.33
2023-01-30T00:32:55.794Z,48.57
2023-01-30T00:35:28.768Z,43.40
2023-01-30T00:37:59.862Z,42.53
2023-01-30T00:40:30.205Z,38.40
2023-01-30T00:43:16.093Z,37.57
2023-01-30T00:46:04.239Z,40.97
2023-01-30T00:48:33.132Z,43.57
2023-01-30T00:51:01.646Z,40.13
2023-01-30T00:53:31.644Z,38.93
2023-01-30T00:56:00.163Z,38.90
2023-01-30T00:58:28.694Z,38.37
2023-01-30T01:00:57.385Z,42.17
2023-01-30T01:03:25.978Z,44.23
2023-01-30T01:05:54.540Z,45.70
2023-01-30T01:08:23.030Z,43.50
2023-01-30T01:10:52.983Z,45.57
2023-01-30T01:13:21.443Z,43.03
2023-01-30T01:15:51.463Z,46.03
2023-01-30T01:18:19.965Z,42.87
2023-01-30T01:20:48.503Z,40.77
2023-01-30T01:23:17.175Z,38.13
2023-01-30T01:25:45.693Z,40.90
2023-01-30T01:28:21.671Z,42.13
2023-01-30T01:30:50.445Z,42.83
2023-01-30T01:33:19.064Z,44.10
2023-01-30T01:35:48.284Z,40.00
2023-01-30T01:38:17.735Z,40.60
2023-01-30T01:41:06.498Z,40.47
2023-01-30T01:43:40.154Z,40.67
2023-01-30T01:46:15.384Z,39.87
2023-01-30T01:48:49.743Z,39.20
2023-01-30T01:51:21.829Z,40.37
2023-01-30T01:53:56.512Z,40.43
2023-01-30T01:56:26.343Z,38.20
2023-01-30T01:58:59.324Z,43.63
2023-01-30T02:01:29.159Z,41.83
2023-01-30T02:04:02.041Z,43.57
2023-01-30T02:06:31.433Z,39.13
2023-01-30T02:09:06.939Z,38.83
2023-01-30T02:11:41.746Z,38.17
2023-01-30T02:14:13.414Z,38.70
2023-01-30T02:16:43.403Z,35.37
2023-01-30T02:19:32.227Z,36.40
2023-01-30T02:22:30.384Z,35.17
2023-01-30T02:25:24.783Z,35.67
2023-01-30T02:28:28.602Z,35.93
2023-01-30T02:31:14.045Z,34.37
2023-01-30T02:33:51.755Z,36.57
2023-01-30T02:36:31.460Z,37.23
2023-01-30T02:39:07.687Z,35.37
2023-01-30T02:41:42.194Z,33.27
2023-01-30T02:44:18.607Z,35.07
2023-01-30T02:46:56.046Z,34.57
2023-01-30T02:49:30.508Z,35.33
2023-01-30T02:52:02.609Z,34.53
2023-01-30T02:54:31.177Z,36.63
2023-01-30T02:57:01.138Z,36.93
2023-01-30T02:59:51.156Z,36.27
2023-01-30T03:02:44.495Z,36.27
2023-01-30T03:05:31.680Z,36.53
2023-01-30T03:08:11.631Z,35.30
2023-01-30T03:11:07.934Z,35.13
2023-01-30T03:13:47.557Z,35.80
2023-01-30T03:16:22.836Z,33.83
2023-01-30T03:18:52.918Z,35.77
2023-01-30T03:21:21.393Z,32.67
2023-01-30T03:23:49.967Z,32.67
2023-01-30T03:26:21.757Z,33.23
2023-01-30T03:50:38.986Z,29.90
2023-01-30T03:53:08.400Z,30.70
2023-01-30T03:55:39.443Z,29.37
2023-01-30T03:58:08.878Z,28.97
2023-01-30T04:00:37.985Z,29.87
2023-01-30T04:03:07.920Z,29.57
2023-01-30T04:05:38.472Z,30.40
2023-01-30T04:08:10.242Z,30.43
2023-01-30T04:10:39.399Z,30.70
2023-01-30T04:13:08.420Z,44.10
2023-01-30T04:15:37.904Z,45.77
2023-01-30T04:18:21.867Z,52.63
2023-01-30T04:20:54.916Z,55.63
2023-01-30T04:23:31.589Z,57.63
2023-01-30T04:26:04.813Z,53.57
2023-01-30T04:28:40.054Z,34.30
2023-01-30T04:31:11.610Z,29.43
2023-01-30T04:33:41.287Z,29.07
2023-01-30T04:36:14.087Z,27.17
2023-01-30T04:38:46.405Z,26.80
2023-01-30T04:41:15.520Z,27.60
2023-01-30T04:43:47.797Z,28.40
2023-01-30T04:46:28.449Z,31.23
2023-01-30T04:48:58.584Z,31.30
2023-01-30T04:51:30.445Z,30.23
2023-01-30T04:54:01.113Z,32.77
2023-01-30T04:56:30.419Z,30.67
2023-01-30T04:58:59.864Z,30.87
2023-01-30T05:01:40.732Z,30.27
2023-01-30T05:04:10.400Z,30.13
2023-01-30T05:06:42.884Z,31.30
2023-01-30T05:09:11.927Z,30.60
2023-01-30T05:11:43.287Z,32.63
2023-01-30T05:14:12.301Z,32.43
2023-01-30T05:16:44.002Z,34.90
2023-01-30T05:19:17.852Z,36.80
2023-01-30T05:21:48.199Z,36.00
2023-01-30T05:24:19.231Z,41.63
2023-01-30T05:26:48.336Z,56.90
2023-01-30T05:29:17.760Z,81.20
2023-01-30T05:31:46.702Z,64.97
2023-01-30T05:34:18.291Z,50.83
2023-01-30T05:36:48.649Z,55.30
2023-01-30T05:39:17.712Z,42.40
2023-01-30T05:41:46.542Z,39.03
2023-01-30T05:44:20.663Z,39.30
2023-01-30T05:46:50.057Z,38.03
2023-01-30T05:49:19.162Z,39.50
2023-01-30T05:51:51.511Z,42.73
2023-01-30T05:54:20.679Z,41.20
2023-01-30T05:56:51.116Z,37.57
2023-01-30T05:59:22.990Z,36.10
2023-01-30T06:01:51.922Z,37.37
2023-01-30T06:04:20.818Z,35.43
2023-01-30T06:06:52.480Z,34.90
2023-01-30T06:09:21.522Z,35.27
2023-01-30T06:11:54.560Z,34.50
2023-01-30T06:14:23.478Z,33.37
2023-01-30T06:16:54.717Z,36.97
2023-01-30T06:19:23.710Z,38.93
2023-01-30T06:21:57.255Z,38.23
2023-01-30T06:24:29.195Z,58.73
2023-01-30T06:26:58.126Z,55.13
2023-01-30T06:29:27.085Z,52.10
2023-01-30T06:31:56.024Z,47.10
2023-01-30T06:34:32.216Z,44.73
2023-01-30T06:37:02.797Z,41.13
2023-01-30T06:39:34.127Z,45.23
2023-01-30T06:42:03.183Z,40.10
2023-01-30T06:44:33.393Z,43.80
2023-01-30T06:47:02.805Z,38.77
2023-01-30T06:49:31.961Z,40.73
2023-01-30T06:52:04.179Z,39.50
2023-01-30T06:54:33.297Z,42.33
2023-01-30T06:57:06.964Z,41.53
2023-01-30T06:59:37.095Z,40.40
2023-01-30T07:02:06.224Z,45.93
2023-01-30T07:04:35.347Z,41.07
2023-01-30T07:07:06.980Z,37.70
2023-01-30T07:09:39.065Z,38.37
2023-01-30T07:12:09.480Z,36.40
2023-01-30T07:14:40.828Z,38.07
2023-01-30T07:17:09.943Z,39.53
2023-01-30T07:19:39.582Z,43.00
2023-01-30T07:22:10.011Z,41.47
2023-01-30T07:24:40.077Z,45.77
2023-01-30T07:27:09.471Z,45.73
2023-01-30T07:29:39.043Z,39.03
2023-01-30T07:32:11.239Z,38.07
2023-01-30T07:34:40.206Z,49.23
2023-01-30T07:37:11.679Z,47.57
2023-01-30T07:39:41.774Z,47.23
2023-01-30T07:42:13.652Z,41.33
2023-01-30T07:44:42.734Z,79.70
2023-01-30T07:47:11.720Z,69.90
2023-01-30T07:49:42.611Z,61.60
2023-01-30T07:52:13.153Z,61.93
2023-01-30T07:54:42.214Z,55.17
2023-01-30T07:57:11.381Z,55.77
2023-01-30T07:59:42.497Z,40.33
2023-01-30T08:02:12.409Z,39.73
2023-01-30T08:04:41.571Z,37.60
2023-01-30T08:07:12.069Z,43.43
2023-01-30T08:09:41.113Z,38.03
2023-01-30T08:12:13.069Z,41.80
2023-01-30T08:14:42.078Z,47.53
2023-01-30T08:17:12.854Z,54.77
2023-01-30T08:19:41.874Z,53.73
2023-01-30T08:22:15.816Z,44.17
2023-01-30T08:24:44.909Z,36.53
2023-01-30T08:27:13.795Z,35.53
2023-01-30T08:29:42.846Z,32.97
2023-01-30T08:32:12.310Z,32.10
2023-01-30T08:34:42.501Z,33.50
2023-01-30T08:37:13.324Z,36.47
2023-01-30T08:39:43.793Z,33.20
2023-01-30T08:42:15.095Z,37.40
2023-01-30T08:44:44.112Z,39.53
2023-01-30T08:47:13.074Z,39.83
2023-01-30T08:49:43.268Z,40.30
2023-01-30T08:52:12.377Z,38.37
2023-01-30T08:54:42.804Z,34.07
2023-01-30T08:57:11.785Z,33.07
2023-01-30T08:59:40.728Z,30.13
2023-01-30T09:02:11.979Z,26.50
2023-01-30T09:04:40.954Z,24.80
2023-01-30T09:07:09.872Z,25.37
2023-01-30T09:09:38.876Z,25.30
2023-01-30T09:12:11.491Z,28.03
2023-01-30T09:14:40.432Z,28.40
2023-01-30T09:17:09.309Z,27.27
2023-01-30T09:19:38.287Z,26.13
2023-01-30T09:22:10.925Z,27.80
2023-01-30T09:24:42.555Z,27.23
2023-01-30T09:27:13.090Z,28.53
2023-01-30T09:29:44.299Z,26.70
2023-01-30T09:32:14.224Z,27.27
2023-01-30T09:34:43.186Z,24.90
2023-01-30T09:37:12.206Z,28.57
2023-01-30T09:39:41.238Z,24.43
2023-01-30T09:42:55.647Z,25.17
2023-01-30T09:45:49.109Z,24.70
2023-01-30T09:48:25.409Z,25.70
2023-01-30T09:51:12.708Z,24.07
2023-01-30T09:54:05.855Z,27.90
2023-01-30T09:56:34.985Z,23.53
2023-01-30T09:59:07.689Z,28.00
2023-01-30T10:01:52.925Z,27.43
2023-01-30T10:04:31.994Z,27.67
2023-01-30T10:07:09.258Z,27.83
2023-01-30T10:09:49.444Z,26.23
2023-01-30T10:12:31.838Z,25.23
2023-01-30T10:15:36.039Z,27.07
2023-01-30T10:18:29.703Z,26.13
2023-01-30T10:21:12.772Z,25.60
2023-01-30T10:24:04.225Z,25.47
2023-01-30T10:26:33.861Z,24.70
2023-01-30T10:29:07.956Z,23.77
2023-01-30T10:31:45.501Z,29.90
2023-01-30T10:34:20.982Z,26.40
2023-01-30T10:36:56.097Z,27.57
2023-01-30T10:39:31.892Z,24.03
2023-01-30T10:42:10.955Z,27.03
2023-01-30T10:44:42.979Z,28.87
2023-01-30T10:47:46.770Z,30.77
2023-01-30T10:50:20.290Z,27.43
2023-01-30T10:52:58.590Z,30.27
2023-01-30T10:55:37.966Z,26.70
2023-01-30T10:58:19.485Z,29.10
2023-01-30T11:00:54.394Z,29.47
2023-01-30T11:03:36.312Z,26.93
2023-01-30T11:06:12.329Z,28.30
2023-01-30T11:08:41.375Z,25.97
2023-01-30T11:11:29.595Z,25.27
2023-01-30T11:14:06.510Z,28.07
2023-01-30T11:16:45.031Z,25.67
2023-01-30T11:19:21.873Z,27.93
2023-01-30T11:21:56.076Z,25.80
2023-01-30T11:24:32.413Z,24.53
2023-01-30T11:27:15.506Z,24.07
2023-01-30T11:29:44.737Z,24.07
2023-01-30T11:32:17.124Z,26.43
2023-01-30T11:35:04.837Z,22.87
2023-01-30T11:37:35.792Z,25.97
2023-01-30T11:40:21.468Z,23.93
2023-01-30T11:42:59.865Z,24.57
2023-01-30T11:45:30.686Z,23.73
2023-01-30T11:48:04.546Z,24.77
2023-01-30T11:50:44.860Z,26.77
2023-01-30T11:53:24.842Z,25.90
2023-01-30T11:56:04.181Z,23.63
2023-01-30T11:58:40.344Z,26.37
2023-01-30T12:01:12.116Z,22.47
2023-01-30T12:03:50.978Z,23.33
2023-01-30T12:06:25.950Z,25.60
2023-01-30T12:08:57.516Z,27.13
2023-01-30T12:11:29.730Z,27.07
2023-01-30T12:14:15.556Z,25.10
2023-01-30T12:16:59.266Z,26.17
2023-01-30T12:19:40.323Z,27.03
2023-01-30T12:22:28.256Z,26.23
2023-01-30T12:25:01.667Z,26.23
2023-01-30T12:27:50.365Z,26.67
2023-01-30T12:30:28.189Z,27.20
2023-01-30T12:36:10.800Z,25.53
2023-01-30T12:39:06.684Z,29.07
2023-01-30T12:41:59.234Z,25.50
2023-01-30T12:44:49.417Z,27.30
2023-01-30T12:47:33.316Z,26.43
2023-01-30T12:50:26.515Z,25.80
2023-01-30T12:53:31.386Z,25.10
2023-01-30T12:56:27.113Z,26.43
2023-01-30T12:59:01.650Z,25.13
2023-01-30T13:01:39.652Z,26.10
2023-01-30T13:04:15.629Z,27.10
2023-01-30T13:07:03.182Z,25.90
2023-01-30T13:09:59.429Z,26.03
2023-01-30T13:12:42.275Z,25.67
2023-01-30T13:15:23.505Z,26.33
2023-01-30T13:18:07.347Z,28.20
2023-01-30T13:20:53.268Z,27.20
2023-01-30T13:23:28.312Z,25.13
2023-01-30T13:26:04.314Z,29.07
2023-01-30T13:28:43.553Z,32.20
2023-01-30T13:31:19.787Z,32.10
2023-01-30T13:33:53.445Z,30.07
2023-01-30T13:36:27.411Z,30.07
2023-01-30T13:41:50.162Z,27.03
2023-01-30T13:44:27.067Z,26.00
2023-01-30T13:46:56.950Z,29.73
2023-01-30T13:49:32.214Z,25.63
2023-01-30T13:52:14.455Z,28.70
2023-01-30T13:55:00.461Z,26.50
2023-01-30T13:57:42.245Z,32.13
2023-01-30T14:00:39.669Z,26.70
2023-01-30T14:03:33.885Z,27.70
2023-01-30T14:06:34.919Z,29.33
2023-01-30T14:09:09.893Z,28.07
2023-01-30T14:11:44.599Z,29.93
2023-01-30T14:14:40.068Z,32.50
2023-01-30T14:17:15.781Z,27.90
2023-01-30T14:19:49.576Z,29.43
2023-01-30T14:22:25.252Z,32.70
2023-01-30T14:25:27.267Z,29.87
2023-01-30T14:27:57.673Z,31.73
2023-01-30T14:30:38.289Z,30.03
2023-01-30T14:33:38.324Z,28.03
2023-01-30T14:36:37.742Z,29.03
2023-01-30T14:39:40.877Z,29.10
2023-01-30T14:42:26.568Z,30.53
2023-01-30T14:45:06.593Z,29.93
2023-01-30T14:47:47.130Z,31.00
2023-01-30T14:50:24.579Z,28.20
2023-01-30T14:53:00.119Z,27.77
2023-01-30T14:55:35.646Z,34.63
2023-01-30T14:58:05.459Z,29.40
2023-01-30T15:00:40.043Z,34.17
2023-01-30T15:03:16.638Z,29.60
2023-01-30T15:05:49.299Z,29.17
2023-01-30T15:08:24.896Z,29.83
2023-01-30T15:11:16.441Z,29.87
2023-01-30T15:14:07.828Z,31.07
2023-01-30T15:17:05.882Z,31.10
2023-01-30T15:20:01.355Z,35.33
2023-01-30T15:22:43.736Z,33.67
2023-01-30T15:25:34.496Z,36.93
2023-01-30T15:28:17.118Z,33.03
2023-01-30T15:31:03.400Z,36.67
2023-01-30T15:33:33.585Z,35.23
2023-01-30T15:36:18.695Z,35.37
2023-01-30T15:38:58.382Z,35.27
2023-01-30T15:41:28.166Z,35.77
2023-01-30T15:44:33.767Z,35.63
2023-01-30T15:47:21.225Z,32.50
2023-01-30T15:49:57.243Z,34.30
2023-01-30T15:52:34.425Z,37.10
2023-01-30T15:55:06.358Z,37.00
2023-01-30T15:57:37.567Z,36.53
2023-01-30T16:00:12.082Z,37.33
2023-01-30T16:02:44.650Z,38.77
2023-01-30T16:05:19.518Z,37.73
2023-01-30T16:07:51.300Z,44.80
2023-01-30T16:10:26.118Z,52.37
2023-01-30T16:12:57.832Z,49.40
2023-01-30T16:15:30.383Z,49.00
2023-01-30T16:18:05.635Z,38.27
2023-01-30T16:20:55.260Z,45.93
2023-01-30T16:23:33.057Z,38.80
2023-01-30T16:26:04.728Z,37.97
2023-01-30T16:28:34.448Z,49.03
2023-01-30T16:31:05.967Z,45.30
2023-01-30T16:33:37.391Z,59.87
2023-01-30T16:36:33.130Z,174.03
2023-01-30T16:39:02.182Z,89.13
2023-01-30T16:41:37.573Z,61.23
2023-01-30T16:44:22.471Z,67.93
2023-01-30T16:46:54.424Z,65.67
2023-01-30T16:49:30.115Z,71.10
2023-01-30T16:52:05.892Z,62.63
2023-01-30T16:54:36.581Z,76.93
2023-01-30T16:57:11.897Z,84.17
2023-01-30T16:59:44.206Z,90.30
2023-01-30T17:02:29.572Z,96.13
2023-01-30T17:05:23.543Z,89.23
2023-01-30T17:07:56.562Z,69.33
2023-01-30T17:11:04.112Z,75.10
2023-01-30T17:13:40.271Z,69.43
2023-01-30T17:16:34.115Z,76.90
2023-01-30T17:19:10.659Z,65.27
2023-01-30T17:21:45.666Z,68.30
2023-01-30T17:24:17.253Z,69.50
2023-01-30T17:26:48.478Z,63.47
2023-01-30T17:29:41.577Z,58.40
2023-01-30T17:32:14.353Z,61.87
2023-01-30T17:34:43.450Z,57.13
2023-01-30T17:37:16.942Z,56.07
2023-01-30T17:39:46.305Z,77.73
2023-01-30T17:42:22.658Z,58.83
2023-01-30T17:44:54.362Z,60.10
2023-01-30T17:47:23.335Z,64.63
2023-01-30T17:49:54.515Z,56.20
2023-01-30T17:52:26.042Z,64.83
2023-01-30T17:54:55.118Z,74.47
2023-01-30T17:57:27.992Z,69.33
2023-01-30T17:59:58.436Z,83.90
2023-01-30T18:02:29.980Z,62.27
2023-01-30T18:04:59.006Z,54.90
2023-01-30T18:07:31.909Z,53.80
2023-01-30T18:10:00.911Z,57.50
2023-01-30T18:12:33.522Z,54.90
2023-01-30T18:15:04.363Z,61.17
2023-01-30T18:17:33.448Z,74.77
2023-01-30T18:20:03.833Z,75.67
2023-01-30T18:22:35.505Z,79.13
2023-01-30T18:25:04.494Z,82.53
2023-01-30T18:27:35.643Z,93.00
2023-01-30T18:30:06.978Z,77.80
2023-01-30T18:32:51.704Z,137.43
2023-01-30T18:35:21.787Z,114.13
2023-01-30T18:37:51.416Z,94.53
2023-01-30T18:40:21.100Z,86.37
2023-01-30T18:42:50.579Z,79.00
2023-01-30T18:45:25.869Z,78.03
2023-01-30T18:47:54.912Z,74.13
2023-01-30T18:50:23.914Z,88.33
2023-01-30T18:52:55.380Z,78.40
2023-01-30T18:55:25.917Z,96.73
2023-01-30T18:57:54.891Z,94.23
2023-01-30T19:00:25.847Z,67.80
2023-01-30T19:02:55.341Z,68.63
2023-01-30T19:05:25.736Z,68.10
2023-01-30T19:07:55.842Z,69.70
2023-01-30T19:10:24.925Z,102.87
2023-01-30T19:13:13.312Z,113.43
2023-01-30T19:15:44.167Z,88.43
2023-01-30T19:18:13.248Z,72.93
2023-01-30T19:20:42.237Z,73.13
2023-01-30T19:23:11.316Z,69.20
2023-01-30T19:25:40.405Z,66.90
2023-01-30T19:28:09.716Z,63.90
2023-01-30T19:30:43.433Z,66.13
2023-01-30T19:33:14.103Z,69.73
2023-01-30T19:35:44.041Z,71.20
2023-01-30T19:38:13.050Z,67.10
2023-01-30T19:40:43.361Z,62.70
2023-01-30T19:43:15.683Z,64.97
2023-01-30T19:45:44.843Z,74.40
2023-01-30T19:48:15.281Z,83.33
2023-01-30T19:50:45.816Z,96.03
2023-01-30T19:53:14.888Z,92.20
2023-01-30T19:55:43.924Z,88.13
2023-01-30T19:58:13.287Z,84.80
2023-01-30T20:00:43.240Z,89.93
2023-01-30T20:03:13.434Z,88.93
2023-01-30T20:05:44.442Z,81.47
2023-01-30T20:08:31.590Z,74.10
2023-01-30T20:11:06.709Z,84.73
2023-01-30T20:13:45.923Z,81.70
2023-01-30T20:16:18.883Z,73.87
2023-01-30T20:18:49.136Z,73.13
2023-01-30T20:21:21.809Z,70.93
2023-01-30T20:23:52.764Z,68.97
2023-01-30T20:26:23.262Z,71.90
2023-01-30T20:28:52.831Z,77.20
2023-01-30T20:31:24.251Z,73.00
2023-01-30T20:33:55.922Z,72.73
2023-01-30T20:36:29.269Z,69.97
2023-01-30T20:39:02.044Z,74.57
2023-01-30T20:41:35.866Z,83.97
2023-01-30T20:44:06.277Z,83.03
2023-01-30T20:46:43.662Z,98.97
2023-01-30T20:49:15.018Z,91.00
2023-01-30T20:51:47.225Z,76.50
2023-01-30T20:54:17.328Z,75.43
2023-01-30T20:56:48.233Z,87.63
2023-01-30T20:59:19.233Z,70.23
2023-01-30T21:01:51.747Z,69.23
2023-01-30T21:04:21.949Z,67.83
2023-01-30T21:06:59.888Z,70.20
2023-01-30T21:09:31.874Z,67.30
2023-01-30T21:12:01.054Z,73.43
2023-01-30T21:14:30.059Z,63.80
2023-01-30T21:17:00.347Z,69.20
2023-01-30T21:19:29.551Z,66.30
2023-01-30T21:22:11.617Z,66.13
2023-01-30T21:24:40.655Z,64.17
2023-01-30T21:27:10.594Z,67.10
2023-01-30T21:29:39.585Z,71.40
2023-01-30T21:32:08.699Z,70.27
2023-01-30T21:34:38.112Z,67.67
2023-01-30T21:37:27.808Z,69.13
2023-01-30T21:40:25.827Z,70.43
2023-01-30T21:43:12.324Z,69.10
2023-01-30T21:45:42.216Z,67.57
2023-01-30T21:48:20.391Z,63.80
2023-01-30T21:50:50.031Z,64.50
2023-01-30T21:53:20.527Z,61.23
2023-01-30T21:55:52.653Z,60.07
2023-01-30T21:58:21.793Z,62.13
2023-01-30T22:00:51.838Z,60.93
2023-01-30T22:03:21.181Z,66.10
2023-01-30T22:05:50.228Z,62.07
2023-01-30T22:08:21.179Z,62.00
2023-01-30T22:10:50.307Z,59.77
2023-01-30T22:13:19.293Z,64.47
2023-01-30T22:15:48.311Z,60.77
2023-01-30T22:18:17.587Z,61.03
2023-01-30T22:20:46.621Z,62.53
2023-01-30T22:23:16.807Z,59.83
2023-01-30T22:25:55.728Z,60.23
2023-01-30T22:28:27.773Z,57.47
2023-01-30T22:31:02.919Z,59.60
2023-01-30T22:33:32.568Z,57.83
2023-01-30T22:36:02.167Z,59.23
2023-01-30T22:38:31.239Z,60.47
2023-01-30T22:41:07.354Z,65.17
2023-01-30T22:43:37.670Z,63.30
2023-01-30T22:46:12.858Z,59.00
2023-01-30T22:48:42.009Z,61.17
2023-01-30T22:51:24.091Z,61.20
2023-01-30T22:53:55.118Z,58.60
2023-01-30T22:56:29.156Z,60.93
2023-01-30T22:58:58.364Z,59.33
2023-01-30T23:01:29.136Z,61.50
2023-01-30T23:04:04.365Z,98.07
2023-01-30T23:06:34.090Z,62.03
2023-01-30T23:09:04.782Z,69.80
2023-01-30T23:11:40.397Z,66.03
2023-01-30T23:14:10.393Z,63.30
2023-01-30T23:16:40.947Z,62.70
2023-01-30T23:19:10.543Z,67.03
2023-01-30T23:21:41.486Z,78.57
2023-01-30T23:24:14.912Z,69.10
2023-01-30T23:26:46.860Z,72.60
2023-01-30T23:29:18.745Z,76.53
2023-01-30T23:31:49.088Z,60.90
2023-01-30T23:34:20.022Z,64.53
2023-01-30T23:36:49.051Z,55.63
2023-01-30T23:39:18.113Z,57.10
2023-01-30T23:41:48.592Z,55.07
2023-01-30T23:44:20.008Z,56.27
2023-01-30T23:46:53.348Z,55.53
2023-01-30T23:49:22.452Z,56.67
2023-01-30T23:51:51.462Z,55.97
2023-01-30T23:54:21.584Z,56.20
2023-01-30T23:56:52.059Z,60.43
2023-01-30T23:59:21.074Z,56.67
